Pemberton, MN (56078)

12:33 PM CST on February 06, 2016 (GMT -0600)
Blue Valley Sod | | Change Station
CLOSE
Current Station
Personal Weather Station
Location: Mapleton, MN
Elevation: 1014 ft
Nearby Weather Stations
Active Advisory: Blizzard Watch

Elev 1014 ft 43.94 °N, 93.83 °W | Updated 15 minutes ago

Overcast
Overcast
27.9 °F
Feels Like 28 °F
N
2.0
Wind Variable Wind from SW
Gusts 21.0 mph

Today
High -- | Low -- °F
--% Chance of Precip.
Yesterday
High -- | Low -- °F
Precip. -- in
Pressure 30.08 in
Visibility 4.0 miles
Clouds Mostly Cloudy 300 ft
Windchill 28 °F
Dew Point 26 °F
Humidity 96%
Rainfall 0.00 in
Snow Depth Not available.
7:27 AM 5:31 PM
Waning Crescent, 4% visible
METAR KACQ 061815Z AUTO 19015KT 4SM BR BKN003 M01/M02 A3008 RMK AO2
Pressure 30.08 in
Visibility 4.0 miles
Clouds Mostly Cloudy 300 ft
Windchill 28 °F
Dew Point 26 °F
Humidity 96%
Rainfall 0.00 in
Snow Depth Not available.
7:27 AM 5:31 PM
Waning Crescent, 4% visible
METAR KACQ 061815Z AUTO 19015KT 4SM BR BKN003 M01/M02 A3008 RMK AO2

10-Day Weather Forecast

Almanac

Astronomy

Feb. 06, 2016 Rise Set
Actual Time
Civil Twilight
Nautical Twilight
Astronomical Twilight
Moon
Length of Visible Light
Length of Day
Tomorrow will be .
, % of the Moon is Illuminated

Today's Extremes

State Highs State Lows

Community

WunderPhotos

Upload Photos

1,891,032 photos uploaded!

WunderBlog® & News

Nearby

Air Quality

  Air Quality AQ Index Pollutant
Not available.

Snow Depth

Station Depth Elevation

Earthquake Activity

City Distance Mag. Time & Date
Minimum magnitude displayed is 2.5.

Coastal Water Temperatures

Place Temperature

Stations

Nearby Weather Stations

Station Location Temp. Windchill Dew Point Humidity Wind Precip. Elev Updated Type
                   

Watches & Warnings

Blizzard Watch
Issued: 10:46 AM CST Feb. 6, 2016 – National Weather Service

... Blizzard watch remains in effect from Sunday afternoon through
Monday morning...

* blizzard conditions are possible from Sunday afternoon through
Monday morning.

* Winds gusting as high as 40 to 50 mph could cause whiteout
conditions in blowing snow. Significant drifting of the snow
is likely.

* Total snow accumulations of up to 2 inches are possible.

* Travel could be very difficult or impossible... including
during the morning commute on Monday.

Precautionary/preparedness actions...

A blizzard watch means there is a potential for falling and
blowing snow with strong winds and extremely poor visibilities.
This can lead to whiteout conditions and make travel very
dangerous.